sensor_id;sensor_type;location;lat;lon;timestamp;P1;durP1;ratioP1;P2;durP2;ratioP2
52468;SDS011;38381;53.688;10.776;2022-11-12T00:02:35;15.10;;;10.55;;
52468;SDS011;38381;53.688;10.776;2022-11-12T00:07:35;11.68;;;10.48;;
52468;SDS011;38381;53.688;10.776;2022-11-12T00:12:36;12.25;;;10.65;;
52468;SDS011;38381;53.688;10.776;2022-11-12T00:17:37;14.30;;;11.43;;
52468;SDS011;38381;53.688;10.776;2022-11-12T00:22:38;11.73;;;10.53;;
52468;SDS011;38381;53.688;10.776;2022-11-12T00:27:39;12.68;;;10.55;;
52468;SDS011;38381;53.688;10.776;2022-11-12T00:32:39;13.75;;;11.60;;
52468;SDS011;38381;53.688;10.776;2022-11-12T00:37:39;11.50;;;9.85;;
52468;SDS011;38381;53.688;10.776;2022-11-12T00:42:40;12.10;;;10.60;;
52468;SDS011;38381;53.688;10.776;2022-11-12T00:47:40;15.85;;;11.90;;
52468;SDS011;38381;53.688;10.776;2022-11-12T00:52:41;13.83;;;10.33;;
52468;SDS011;38381;53.688;10.776;2022-11-12T00:57:41;12.13;;;10.20;;
52468;SDS011;38381;53.688;10.776;2022-11-12T01:02:41;12.20;;;10.40;;
52468;SDS011;38381;53.688;10.776;2022-11-12T01:07:42;12.73;;;10.00;;
52468;SDS011;38381;53.688;10.776;2022-11-12T01:12:43;11.68;;;9.75;;
52468;SDS011;38381;53.688;10.776;2022-11-12T01:17:43;10.68;;;9.27;;
52468;SDS011;38381;53.688;10.776;2022-11-12T01:22:43;17.95;;;10.65;;
52468;SDS011;38381;53.688;10.776;2022-11-12T01:27:44;12.27;;;10.93;;
52468;SDS011;38381;53.688;10.776;2022-11-12T01:32:44;15.73;;;10.05;;
52468;SDS011;38381;53.688;10.776;2022-11-12T01:37:45;12.93;;;10.88;;
52468;SDS011;38381;53.688;10.776;2022-11-12T01:42:50;14.13;;;11.52;;
52468;SDS011;38381;53.688;10.776;2022-11-12T01:47:53;13.95;;;11.30;;
52468;SDS011;38381;53.688;10.776;2022-11-12T01:52:59;16.05;;;12.63;;
52468;SDS011;38381;53.688;10.776;2022-11-12T01:58:06;16.92;;;11.95;;
52468;SDS011;38381;53.688;10.776;2022-11-12T02:03:11;21.38;;;13.93;;
52468;SDS011;38381;53.688;10.776;2022-11-12T02:08:16;18.05;;;12.18;;
52468;SDS011;38381;53.688;10.776;2022-11-12T02:13:17;15.82;;;12.00;;
52468;SDS011;38381;53.688;10.776;2022-11-12T02:18:36;18.13;;;12.10;;
52468;SDS011;38381;53.688;10.776;2022-11-12T02:23:37;14.10;;;11.68;;
52468;SDS011;38381;53.688;10.776;2022-11-12T02:28:37;13.40;;;11.52;;
52468;SDS011;38381;53.688;10.776;2022-11-12T02:33:38;18.42;;;13.85;;
52468;SDS011;38381;53.688;10.776;2022-11-12T02:38:38;21.17;;;13.47;;
52468;SDS011;38381;53.688;10.776;2022-11-12T02:43:39;18.17;;;12.80;;
52468;SDS011;38381;53.688;10.776;2022-11-12T02:48:40;17.80;;;13.77;;
52468;SDS011;38381;53.688;10.776;2022-11-12T02:53:40;19.85;;;12.25;;
52468;SDS011;38381;53.688;10.776;2022-11-12T02:58:41;16.40;;;12.93;;
52468;SDS011;38381;53.688;10.776;2022-11-12T03:03:41;18.08;;;13.02;;
52468;SDS011;38381;53.688;10.776;2022-11-12T03:08:41;17.85;;;12.95;;
52468;SDS011;38381;53.688;10.776;2022-11-12T03:13:42;18.38;;;13.75;;
52468;SDS011;38381;53.688;10.776;2022-11-12T03:18:43;20.38;;;13.63;;
52468;SDS011;38381;53.688;10.776;2022-11-12T03:23:43;15.77;;;13.07;;
52468;SDS011;38381;53.688;10.776;2022-11-12T03:28:43;15.80;;;11.55;;
52468;SDS011;38381;53.688;10.776;2022-11-12T03:33:44;16.10;;;12.00;;
52468;SDS011;38381;53.688;10.776;2022-11-12T03:38:45;15.20;;;11.93;;
52468;SDS011;38381;53.688;10.776;2022-11-12T03:43:45;17.85;;;11.82;;
52468;SDS011;38381;53.688;10.776;2022-11-12T03:48:46;13.32;;;11.20;;
52468;SDS011;38381;53.688;10.776;2022-11-12T03:53:46;15.50;;;10.77;;
52468;SDS011;38381;53.688;10.776;2022-11-12T03:58:47;16.92;;;10.73;;
52468;SDS011;38381;53.688;10.776;2022-11-12T04:03:47;17.45;;;12.00;;
52468;SDS011;38381;53.688;10.776;2022-11-12T04:08:47;19.23;;;11.18;;
52468;SDS011;38381;53.688;10.776;2022-11-12T04:13:48;15.82;;;11.05;;
52468;SDS011;38381;53.688;10.776;2022-11-12T04:18:49;11.40;;;9.87;;
52468;SDS011;38381;53.688;10.776;2022-11-12T04:24:09;15.48;;;11.60;;
52468;SDS011;38381;53.688;10.776;2022-11-12T04:29:30;13.68;;;10.20;;
52468;SDS011;38381;53.688;10.776;2022-11-12T04:34:49;14.57;;;11.32;;
52468;SDS011;38381;53.688;10.776;2022-11-12T04:39:50;13.20;;;11.55;;
52468;SDS011;38381;53.688;10.776;2022-11-12T04:44:51;20.10;;;11.95;;
52468;SDS011;38381;53.688;10.776;2022-11-12T04:50:06;14.57;;;10.57;;
52468;SDS011;38381;53.688;10.776;2022-11-12T04:55:11;17.65;;;12.52;;
52468;SDS011;38381;53.688;10.776;2022-11-12T05:00:12;14.00;;;12.35;;
52468;SDS011;38381;53.688;10.776;2022-11-12T05:05:12;15.65;;;11.30;;
52468;SDS011;38381;53.688;10.776;2022-11-12T05:10:13;15.88;;;11.50;;
52468;SDS011;38381;53.688;10.776;2022-11-12T05:15:14;12.98;;;11.65;;
52468;SDS011;38381;53.688;10.776;2022-11-12T05:20:14;13.20;;;11.25;;
52468;SDS011;38381;53.688;10.776;2022-11-12T05:25:15;18.08;;;12.48;;
52468;SDS011;38381;53.688;10.776;2022-11-12T05:30:15;14.40;;;12.45;;
52468;SDS011;38381;53.688;10.776;2022-11-12T05:35:16;16.00;;;12.38;;
52468;SDS011;38381;53.688;10.776;2022-11-12T05:40:16;14.33;;;12.27;;
52468;SDS011;38381;53.688;10.776;2022-11-12T05:45:16;13.02;;;11.68;;
52468;SDS011;38381;53.688;10.776;2022-11-12T05:50:17;14.98;;;11.77;;
52468;SDS011;38381;53.688;10.776;2022-11-12T05:55:17;16.50;;;11.73;;
52468;SDS011;38381;53.688;10.776;2022-11-12T06:00:18;14.35;;;10.88;;
52468;SDS011;38381;53.688;10.776;2022-11-12T06:05:18;12.75;;;10.65;;
52468;SDS011;38381;53.688;10.776;2022-11-12T06:10:19;15.55;;;11.75;;
52468;SDS011;38381;53.688;10.776;2022-11-12T06:15:19;14.98;;;11.75;;
52468;SDS011;38381;53.688;10.776;2022-11-12T06:20:20;13.50;;;10.63;;
52468;SDS011;38381;53.688;10.776;2022-11-12T06:25:21;14.52;;;11.93;;
52468;SDS011;38381;53.688;10.776;2022-11-12T06:30:22;12.10;;;10.43;;
52468;SDS011;38381;53.688;10.776;2022-11-12T06:35:22;18.95;;;10.18;;
52468;SDS011;38381;53.688;10.776;2022-11-12T06:40:23;12.77;;;10.63;;
52468;SDS011;38381;53.688;10.776;2022-11-12T06:45:24;15.05;;;12.02;;
52468;SDS011;38381;53.688;10.776;2022-11-12T06:50:24;11.85;;;10.70;;
52468;SDS011;38381;53.688;10.776;2022-11-12T06:55:25;14.70;;;11.40;;
52468;SDS011;38381;53.688;10.776;2022-11-12T07:00:25;14.45;;;11.02;;
52468;SDS011;38381;53.688;10.776;2022-11-12T07:05:26;15.98;;;11.68;;
52468;SDS011;38381;53.688;10.776;2022-11-12T07:10:26;17.17;;;11.93;;
52468;SDS011;38381;53.688;10.776;2022-11-12T07:15:26;15.40;;;11.73;;
52468;SDS011;38381;53.688;10.776;2022-11-12T07:20:27;13.82;;;10.93;;
52468;SDS011;38381;53.688;10.776;2022-11-12T07:25:27;17.77;;;12.15;;
52468;SDS011;38381;53.688;10.776;2022-11-12T07:30:28;16.33;;;13.25;;
52468;SDS011;38381;53.688;10.776;2022-11-12T07:35:28;17.83;;;11.85;;
52468;SDS011;38381;53.688;10.776;2022-11-12T07:40:28;14.98;;;13.20;;
52468;SDS011;38381;53.688;10.776;2022-11-12T07:45:29;19.17;;;13.48;;
52468;SDS011;38381;53.688;10.776;2022-11-12T07:50:29;14.70;;;12.50;;
52468;SDS011;38381;53.688;10.776;2022-11-12T07:55:30;12.93;;;11.57;;
52468;SDS011;38381;53.688;10.776;2022-11-12T08:00:30;15.23;;;12.27;;
52468;SDS011;38381;53.688;10.776;2022-11-12T08:05:32;15.23;;;12.50;;
52468;SDS011;38381;53.688;10.776;2022-11-12T08:10:32;17.63;;;12.77;;
52468;SDS011;38381;53.688;10.776;2022-11-12T08:15:33;15.18;;;11.82;;
52468;SDS011;38381;53.688;10.776;2022-11-12T08:20:33;16.05;;;12.80;;
52468;SDS011;38381;53.688;10.776;2022-11-12T08:25:34;12.00;;;10.52;;
52468;SDS011;38381;53.688;10.776;2022-11-12T08:30:35;14.73;;;11.77;;
52468;SDS011;38381;53.688;10.776;2022-11-12T08:35:36;13.70;;;12.27;;
52468;SDS011;38381;53.688;10.776;2022-11-12T08:40:37;18.63;;;13.27;;
52468;SDS011;38381;53.688;10.776;2022-11-12T08:45:38;14.88;;;11.70;;
52468;SDS011;38381;53.688;10.776;2022-11-12T08:55:41;14.32;;;11.02;;
52468;SDS011;38381;53.688;10.776;2022-11-12T09:00:43;12.32;;;10.63;;
52468;SDS011;38381;53.688;10.776;2022-11-12T09:05:43;12.60;;;9.77;;
52468;SDS011;38381;53.688;10.776;2022-11-12T09:10:44;16.65;;;13.80;;
52468;SDS011;38381;53.688;10.776;2022-11-12T09:15:45;25.90;;;21.30;;
52468;SDS011;38381;53.688;10.776;2022-11-12T09:20:46;13.43;;;10.57;;
52468;SDS011;38381;53.688;10.776;2022-11-12T09:25:46;13.35;;;9.82;;
52468;SDS011;38381;53.688;10.776;2022-11-12T09:30:48;13.95;;;9.85;;
52468;SDS011;38381;53.688;10.776;2022-11-12T09:35:49;12.68;;;11.38;;
52468;SDS011;38381;53.688;10.776;2022-11-12T09:45:51;14.80;;;9.93;;
52468;SDS011;38381;53.688;10.776;2022-11-12T09:56:34;10.90;;;8.45;;
52468;SDS011;38381;53.688;10.776;2022-11-12T10:01:55;11.73;;;8.90;;
52468;SDS011;38381;53.688;10.776;2022-11-12T10:07:02;9.82;;;7.82;;
52468;SDS011;38381;53.688;10.776;2022-11-12T10:18:00;14.43;;;8.82;;
52468;SDS011;38381;53.688;10.776;2022-11-12T10:33:29;10.82;;;9.45;;
52468;SDS011;38381;53.688;10.776;2022-11-12T10:38:32;12.52;;;9.25;;
52468;SDS011;38381;53.688;10.776;2022-11-12T10:43:33;12.77;;;9.10;;
52468;SDS011;38381;53.688;10.776;2022-11-12T10:48:34;15.93;;;7.82;;
52468;SDS011;38381;53.688;10.776;2022-11-12T10:53:36;8.82;;;7.95;;
52468;SDS011;38381;53.688;10.776;2022-11-12T10:58:38;12.95;;;7.90;;
52468;SDS011;38381;53.688;10.776;2022-11-12T11:04:14;14.82;;;8.57;;
52468;SDS011;38381;53.688;10.776;2022-11-12T11:09:15;9.85;;;6.90;;
52468;SDS011;38381;53.688;10.776;2022-11-12T11:19:22;8.35;;;7.45;;
52468;SDS011;38381;53.688;10.776;2022-11-12T11:50:44;9.63;;;6.60;;
52468;SDS011;38381;53.688;10.776;2022-11-12T11:55:56;9.18;;;7.60;;
52468;SDS011;38381;53.688;10.776;2022-11-12T12:01:11;10.35;;;6.30;;
52468;SDS011;38381;53.688;10.776;2022-11-12T12:06:26;8.18;;;7.03;;
52468;SDS011;38381;53.688;10.776;2022-11-12T12:22:30;7.68;;;5.57;;
52468;SDS011;38381;53.688;10.776;2022-11-12T12:27:34;5.55;;;4.97;;
52468;SDS011;38381;53.688;10.776;2022-11-12T12:32:52;6.70;;;5.07;;
52468;SDS011;38381;53.688;10.776;2022-11-12T12:38:05;7.60;;;5.30;;
52468;SDS011;38381;53.688;10.776;2022-11-12T12:48:33;6.90;;;5.45;;
52468;SDS011;38381;53.688;10.776;2022-11-12T12:53:37;6.13;;;4.78;;
52468;SDS011;38381;53.688;10.776;2022-11-12T12:58:45;6.43;;;4.63;;
52468;SDS011;38381;53.688;10.776;2022-11-12T13:09:03;5.57;;;4.95;;
52468;SDS011;38381;53.688;10.776;2022-11-12T13:19:42;7.18;;;5.80;;
52468;SDS011;38381;53.688;10.776;2022-11-12T13:25:45;6.80;;;4.18;;
52468;SDS011;38381;53.688;10.776;2022-11-12T13:45:55;10.07;;;6.13;;
52468;SDS011;38381;53.688;10.776;2022-11-12T13:51:05;8.63;;;4.80;;
52468;SDS011;38381;53.688;10.776;2022-11-12T13:56:25;8.20;;;5.80;;
52468;SDS011;38381;53.688;10.776;2022-11-12T14:01:31;8.05;;;4.70;;
52468;SDS011;38381;53.688;10.776;2022-11-12T14:06:43;9.95;;;4.93;;
52468;SDS011;38381;53.688;10.776;2022-11-12T14:22:21;8.25;;;6.00;;
52468;SDS011;38381;53.688;10.776;2022-11-12T14:32:25;7.00;;;6.20;;
52468;SDS011;38381;53.688;10.776;2022-11-12T14:37:35;10.25;;;6.55;;
52468;SDS011;38381;53.688;10.776;2022-11-12T14:42:37;8.52;;;6.70;;
52468;SDS011;38381;53.688;10.776;2022-11-12T14:47:39;9.40;;;6.68;;
52468;SDS011;38381;53.688;10.776;2022-11-12T14:52:40;7.38;;;4.85;;
52468;SDS011;38381;53.688;10.776;2022-11-12T14:57:44;7.13;;;4.70;;
52468;SDS011;38381;53.688;10.776;2022-11-12T15:02:45;8.25;;;4.72;;
52468;SDS011;38381;53.688;10.776;2022-11-12T15:18:18;7.88;;;5.28;;
52468;SDS011;38381;53.688;10.776;2022-11-12T15:23:22;10.48;;;6.20;;
52468;SDS011;38381;53.688;10.776;2022-11-12T15:28:23;5.15;;;4.60;;
52468;SDS011;38381;53.688;10.776;2022-11-12T15:33:25;5.37;;;4.87;;
52468;SDS011;38381;53.688;10.776;2022-11-12T15:43:36;7.35;;;4.55;;
52468;SDS011;38381;53.688;10.776;2022-11-12T15:48:41;5.63;;;4.85;;
52468;SDS011;38381;53.688;10.776;2022-11-12T15:53:42;6.03;;;4.55;;
52468;SDS011;38381;53.688;10.776;2022-11-12T15:58:42;10.02;;;5.63;;
52468;SDS011;38381;53.688;10.776;2022-11-12T16:03:43;5.88;;;4.95;;
52468;SDS011;38381;53.688;10.776;2022-11-12T16:08:43;5.18;;;4.68;;
52468;SDS011;38381;53.688;10.776;2022-11-12T16:13:45;5.05;;;4.55;;
52468;SDS011;38381;53.688;10.776;2022-11-12T16:18:45;5.68;;;4.78;;
52468;SDS011;38381;53.688;10.776;2022-11-12T16:23:45;9.60;;;6.00;;
52468;SDS011;38381;53.688;10.776;2022-11-12T16:28:46;9.82;;;4.00;;
52468;SDS011;38381;53.688;10.776;2022-11-12T16:33:46;5.10;;;4.20;;
52468;SDS011;38381;53.688;10.776;2022-11-12T16:38:47;5.00;;;4.45;;
52468;SDS011;38381;53.688;10.776;2022-11-12T16:43:47;7.97;;;5.32;;
52468;SDS011;38381;53.688;10.776;2022-11-12T16:48:47;5.83;;;5.27;;
52468;SDS011;38381;53.688;10.776;2022-11-12T16:53:48;5.93;;;4.28;;
52468;SDS011;38381;53.688;10.776;2022-11-12T16:58:48;7.28;;;5.18;;
52468;SDS011;38381;53.688;10.776;2022-11-12T17:03:49;8.63;;;5.93;;
52468;SDS011;38381;53.688;10.776;2022-11-12T17:08:54;13.97;;;6.63;;
52468;SDS011;38381;53.688;10.776;2022-11-12T17:13:54;10.65;;;7.82;;
52468;SDS011;38381;53.688;10.776;2022-11-12T17:18:56;16.63;;;8.85;;
52468;SDS011;38381;53.688;10.776;2022-11-12T17:24:00;10.13;;;6.85;;
52468;SDS011;38381;53.688;10.776;2022-11-12T17:29:00;7.40;;;5.90;;
52468;SDS011;38381;53.688;10.776;2022-11-12T17:34:02;13.48;;;10.75;;
52468;SDS011;38381;53.688;10.776;2022-11-12T17:39:04;11.02;;;9.35;;
52468;SDS011;38381;53.688;10.776;2022-11-12T17:44:04;8.48;;;6.18;;
52468;SDS011;38381;53.688;10.776;2022-11-12T17:49:05;11.55;;;7.20;;
52468;SDS011;38381;53.688;10.776;2022-11-12T17:54:05;10.75;;;7.65;;
52468;SDS011;38381;53.688;10.776;2022-11-12T17:59:07;9.75;;;6.43;;
52468;SDS011;38381;53.688;10.776;2022-11-12T18:04:08;9.50;;;7.63;;
52468;SDS011;38381;53.688;10.776;2022-11-12T18:09:13;8.77;;;6.55;;
52468;SDS011;38381;53.688;10.776;2022-11-12T18:14:14;9.75;;;6.78;;
52468;SDS011;38381;53.688;10.776;2022-11-12T18:19:15;6.95;;;6.05;;
52468;SDS011;38381;53.688;10.776;2022-11-12T18:24:16;6.68;;;5.80;;
52468;SDS011;38381;53.688;10.776;2022-11-12T18:29:16;7.70;;;6.90;;
52468;SDS011;38381;53.688;10.776;2022-11-12T18:34:17;7.00;;;5.63;;
52468;SDS011;38381;53.688;10.776;2022-11-12T18:39:17;11.43;;;7.07;;
52468;SDS011;38381;53.688;10.776;2022-11-12T18:44:17;7.97;;;6.68;;
52468;SDS011;38381;53.688;10.776;2022-11-12T18:49:18;7.25;;;6.55;;
52468;SDS011;38381;53.688;10.776;2022-11-12T18:54:18;7.63;;;6.22;;
52468;SDS011;38381;53.688;10.776;2022-11-12T18:59:19;8.70;;;5.40;;
52468;SDS011;38381;53.688;10.776;2022-11-12T19:04:19;7.03;;;6.18;;
52468;SDS011;38381;53.688;10.776;2022-11-12T19:09:20;10.48;;;6.25;;
52468;SDS011;38381;53.688;10.776;2022-11-12T19:14:21;6.82;;;6.13;;
52468;SDS011;38381;53.688;10.776;2022-11-12T19:19:22;7.57;;;5.73;;
52468;SDS011;38381;53.688;10.776;2022-11-12T19:24:22;7.45;;;6.72;;
52468;SDS011;38381;53.688;10.776;2022-11-12T19:29:23;9.68;;;7.43;;
52468;SDS011;38381;53.688;10.776;2022-11-12T19:34:23;6.65;;;5.95;;
52468;SDS011;38381;53.688;10.776;2022-11-12T19:39:24;7.68;;;6.80;;
52468;SDS011;38381;53.688;10.776;2022-11-12T19:44:24;7.47;;;5.95;;
52468;SDS011;38381;53.688;10.776;2022-11-12T19:49:24;6.57;;;5.78;;
52468;SDS011;38381;53.688;10.776;2022-11-12T19:54:25;7.57;;;6.88;;
52468;SDS011;38381;53.688;10.776;2022-11-12T19:59:25;8.23;;;7.15;;
52468;SDS011;38381;53.688;10.776;2022-11-12T20:04:26;9.20;;;8.18;;
52468;SDS011;38381;53.688;10.776;2022-11-12T20:09:26;8.00;;;7.20;;
52468;SDS011;38381;53.688;10.776;2022-11-12T20:14:27;7.07;;;5.97;;
52468;SDS011;38381;53.688;10.776;2022-11-12T20:19:29;10.77;;;8.50;;
52468;SDS011;38381;53.688;10.776;2022-11-12T20:24:29;9.00;;;7.65;;
52468;SDS011;38381;53.688;10.776;2022-11-12T20:29:29;10.32;;;7.40;;
52468;SDS011;38381;53.688;10.776;2022-11-12T20:34:30;8.75;;;7.85;;
52468;SDS011;38381;53.688;10.776;2022-11-12T20:39:31;8.02;;;6.80;;
52468;SDS011;38381;53.688;10.776;2022-11-12T20:44:31;6.90;;;6.05;;
52468;SDS011;38381;53.688;10.776;2022-11-12T20:49:32;7.85;;;6.30;;
52468;SDS011;38381;53.688;10.776;2022-11-12T20:54:32;7.22;;;6.53;;
52468;SDS011;38381;53.688;10.776;2022-11-12T20:59:32;9.23;;;8.32;;
52468;SDS011;38381;53.688;10.776;2022-11-12T21:04:36;10.38;;;8.40;;
52468;SDS011;38381;53.688;10.776;2022-11-12T21:09:37;9.55;;;7.97;;
52468;SDS011;38381;53.688;10.776;2022-11-12T21:14:37;10.23;;;8.40;;
52468;SDS011;38381;53.688;10.776;2022-11-12T21:19:38;7.32;;;6.53;;
52468;SDS011;38381;53.688;10.776;2022-11-12T21:24:38;8.55;;;7.75;;
52468;SDS011;38381;53.688;10.776;2022-11-12T21:29:39;6.93;;;5.95;;
52468;SDS011;38381;53.688;10.776;2022-11-12T21:34:39;7.97;;;7.18;;
52468;SDS011;38381;53.688;10.776;2022-11-12T21:39:39;8.20;;;7.35;;
52468;SDS011;38381;53.688;10.776;2022-11-12T21:44:40;9.32;;;8.48;;
52468;SDS011;38381;53.688;10.776;2022-11-12T21:49:40;13.82;;;10.35;;
52468;SDS011;38381;53.688;10.776;2022-11-12T21:54:41;14.18;;;11.02;;
52468;SDS011;38381;53.688;10.776;2022-11-12T21:59:41;13.10;;;11.02;;
52468;SDS011;38381;53.688;10.776;2022-11-12T22:04:42;12.00;;;9.38;;
52468;SDS011;38381;53.688;10.776;2022-11-12T22:09:42;9.40;;;8.25;;
52468;SDS011;38381;53.688;10.776;2022-11-12T22:14:43;10.02;;;8.80;;
52468;SDS011;38381;53.688;10.776;2022-11-12T22:19:43;9.32;;;8.38;;
52468;SDS011;38381;53.688;10.776;2022-11-12T22:24:43;9.50;;;8.48;;
52468;SDS011;38381;53.688;10.776;2022-11-12T22:29:44;11.25;;;9.68;;
52468;SDS011;38381;53.688;10.776;2022-11-12T22:34:46;11.98;;;9.55;;
52468;SDS011;38381;53.688;10.776;2022-11-12T22:39:46;10.38;;;9.38;;
52468;SDS011;38381;53.688;10.776;2022-11-12T22:44:47;11.98;;;9.75;;
52468;SDS011;38381;53.688;10.776;2022-11-12T22:49:47;12.40;;;9.52;;
52468;SDS011;38381;53.688;10.776;2022-11-12T22:54:47;13.85;;;10.18;;
52468;SDS011;38381;53.688;10.776;2022-11-12T22:59:48;10.98;;;9.82;;
52468;SDS011;38381;53.688;10.776;2022-11-12T23:04:48;11.15;;;9.05;;
52468;SDS011;38381;53.688;10.776;2022-11-12T23:09:49;11.05;;;9.20;;
52468;SDS011;38381;53.688;10.776;2022-11-12T23:14:49;12.67;;;10.33;;
52468;SDS011;38381;53.688;10.776;2022-11-12T23:19:49;11.82;;;9.80;;
52468;SDS011;38381;53.688;10.776;2022-11-12T23:24:50;11.15;;;9.52;;
52468;SDS011;38381;53.688;10.776;2022-11-12T23:29:50;11.98;;;10.20;;
52468;SDS011;38381;53.688;10.776;2022-11-12T23:34:51;11.57;;;10.32;;
52468;SDS011;38381;53.688;10.776;2022-11-12T23:39:51;10.93;;;9.82;;
52468;SDS011;38381;53.688;10.776;2022-11-12T23:44:52;12.13;;;9.77;;
52468;SDS011;38381;53.688;10.776;2022-11-12T23:49:52;13.30;;;10.93;;
52468;SDS011;38381;53.688;10.776;2022-11-12T23:54:52;12.77;;;10.90;;
52468;SDS011;38381;53.688;10.776;2022-11-12T23:59:53;11.27;;;10.07;;
